sensor_id;sensor_type;location;lat;lon;timestamp;pressure;altitude;pressure_sealevel;temperature;humidity
67345;BME280;54230;52.402;6.276;2023-04-01T00:00:00;99090.0;;;12.6;88.5
67345;BME280;54230;52.402;6.276;2023-04-01T00:05:00;99080.0;;;12.6;88.3
67345;BME280;54230;52.402;6.276;2023-04-01T00:10:00;99080.0;;;12.7;87.7
67345;BME280;54230;52.402;6.276;2023-04-01T00:15:01;99080.0;;;12.7;86.8
67345;BME280;54230;52.402;6.276;2023-04-01T00:20:01;99080.0;;;12.7;87.3
67345;BME280;54230;52.402;6.276;2023-04-01T00:25:00;99090.0;;;12.6;87.3
67345;BME280;54230;52.402;6.276;2023-04-01T00:30:00;99080.0;;;12.6;87.7
67345;BME280;54230;52.402;6.276;2023-04-01T00:35:00;99080.0;;;12.7;87.9
67345;BME280;54230;52.402;6.276;2023-04-01T00:40:00;99080.0;;;12.6;87.8
67345;BME280;54230;52.402;6.276;2023-04-01T00:50:00;99090.0;;;12.7;88.0
67345;BME280;54230;52.402;6.276;2023-04-01T00:55:01;99090.0;;;12.7;88.2
67345;BME280;54230;52.402;6.276;2023-04-01T01:00:00;99090.0;;;12.7;87.9
67345;BME280;54230;52.402;6.276;2023-04-01T01:05:00;99090.0;;;12.6;87.6
67345;BME280;54230;52.402;6.276;2023-04-01T01:10:05;99090.0;;;12.6;88.2
67345;BME280;54230;52.402;6.276;2023-04-01T01:15:06;99090.0;;;12.6;87.8
67345;BME280;54230;52.402;6.276;2023-04-01T01:25:12;99090.0;;;12.5;88.7
67345;BME280;54230;52.402;6.276;2023-04-01T01:30:08;99100.0;;;12.4;88.9
67345;BME280;54230;52.402;6.276;2023-04-01T01:35:09;99100.0;;;12.4;89.3
67345;BME280;54230;52.402;6.276;2023-04-01T01:40:05;99100.0;;;12.4;89.3
67345;BME280;54230;52.402;6.276;2023-04-01T01:45:01;99100.0;;;12.6;89.3
67345;BME280;54230;52.402;6.276;2023-04-01T01:50:00;99110.0;;;12.6;89.1
67345;BME280;54230;52.402;6.276;2023-04-01T01:55:00;99110.0;;;12.7;88.7
67345;BME280;54230;52.402;6.276;2023-04-01T02:00:04;99110.0;;;12.6;88.8
67345;BME280;54230;52.402;6.276;2023-04-01T02:05:01;99110.0;;;12.6;88.9
67345;BME280;54230;52.402;6.276;2023-04-01T02:10:00;99120.0;;;12.6;89.0
67345;BME280;54230;52.402;6.276;2023-04-01T02:15:03;99120.0;;;12.8;89.1
67345;BME280;54230;52.402;6.276;2023-04-01T02:20:04;99120.0;;;12.8;89.0
67345;BME280;54230;52.402;6.276;2023-04-01T02:25:04;99130.0;;;12.8;88.2
67345;BME280;54230;52.402;6.276;2023-04-01T02:30:00;99130.0;;;12.8;87.7
67345;BME280;54230;52.402;6.276;2023-04-01T02:35:01;99130.0;;;12.7;88.2
67345;BME280;54230;52.402;6.276;2023-04-01T02:40:00;99130.0;;;12.7;88.7
67345;BME280;54230;52.402;6.276;2023-04-01T02:45:00;99140.0;;;12.7;89.2
67345;BME280;54230;52.402;6.276;2023-04-01T02:50:00;99140.0;;;12.5;88.8
67345;BME280;54230;52.402;6.276;2023-04-01T02:55:00;99140.0;;;12.8;89.8
67345;BME280;54230;52.402;6.276;2023-04-01T03:00:00;99140.0;;;12.7;88.8
67345;BME280;54230;52.402;6.276;2023-04-01T03:05:00;99150.0;;;12.6;89.0
67345;BME280;54230;52.402;6.276;2023-04-01T03:10:00;99150.0;;;12.6;89.2
67345;BME280;54230;52.402;6.276;2023-04-01T03:15:00;99160.0;;;12.4;89.5
67345;BME280;54230;52.402;6.276;2023-04-01T03:20:00;99160.0;;;12.5;90.0
67345;BME280;54230;52.402;6.276;2023-04-01T03:25:00;99170.0;;;12.4;89.6
67345;BME280;54230;52.402;6.276;2023-04-01T03:30:00;99180.0;;;12.4;89.9
67345;BME280;54230;52.402;6.276;2023-04-01T03:35:00;99180.0;;;12.4;90.0
67345;BME280;54230;52.402;6.276;2023-04-01T03:40:00;99180.0;;;12.5;90.1
67345;BME280;54230;52.402;6.276;2023-04-01T03:45:00;99190.0;;;12.5;89.9
67345;BME280;54230;52.402;6.276;2023-04-01T03:50:00;99190.0;;;12.4;89.2
67345;BME280;54230;52.402;6.276;2023-04-01T03:55:00;99200.0;;;12.4;89.6
67345;BME280;54230;52.402;6.276;2023-04-01T04:00:00;99200.0;;;12.6;89.4
67345;BME280;54230;52.402;6.276;2023-04-01T04:05:00;99200.0;;;12.6;89.3
67345;BME280;54230;52.402;6.276;2023-04-01T04:10:00;99200.0;;;12.8;89.8
67345;BME280;54230;52.402;6.276;2023-04-01T04:15:00;99210.0;;;12.9;88.9
67345;BME280;54230;52.402;6.276;2023-04-01T04:20:01;99210.0;;;12.9;88.9
67345;BME280;54230;52.402;6.276;2023-04-01T04:25:00;99210.0;;;12.8;87.8
67345;BME280;54230;52.402;6.276;2023-04-01T04:30:00;99220.0;;;12.6;88.1
67345;BME280;54230;52.402;6.276;2023-04-01T04:35:00;99230.0;;;12.6;88.1
67345;BME280;54230;52.402;6.276;2023-04-01T04:40:00;99220.0;;;12.5;88.1
67345;BME280;54230;52.402;6.276;2023-04-01T04:45:00;99230.0;;;12.7;88.1
67345;BME280;54230;52.402;6.276;2023-04-01T04:50:00;99240.0;;;12.9;88.4
67345;BME280;54230;52.402;6.276;2023-04-01T04:55:00;99240.0;;;12.9;87.5
67345;BME280;54230;52.402;6.276;2023-04-01T05:00:00;99250.0;;;13.0;86.8
67345;BME280;54230;52.402;6.276;2023-04-01T05:05:00;99250.0;;;13.0;88.0
67345;BME280;54230;52.402;6.276;2023-04-01T05:10:00;99260.0;;;13.1;87.6
67345;BME280;54230;52.402;6.276;2023-04-01T05:15:00;99260.0;;;13.2;87.4
67345;BME280;54230;52.402;6.276;2023-04-01T05:20:00;99270.0;;;13.2;86.8
67345;BME280;54230;52.402;6.276;2023-04-01T05:25:00;99270.0;;;13.2;87.1
67345;BME280;54230;52.402;6.276;2023-04-01T05:30:00;99280.0;;;13.2;87.0
67345;BME280;54230;52.402;6.276;2023-04-01T05:35:00;99280.0;;;13.2;87.1
67345;BME280;54230;52.402;6.276;2023-04-01T05:40:00;99290.0;;;13.2;86.9
67345;BME280;54230;52.402;6.276;2023-04-01T05:45:00;99300.0;;;13.2;86.9
67345;BME280;54230;52.402;6.276;2023-04-01T05:50:00;99300.0;;;13.3;87.1
67345;BME280;54230;52.402;6.276;2023-04-01T05:55:00;99310.0;;;13.2;86.4
67345;BME280;54230;52.402;6.276;2023-04-01T06:00:00;99320.0;;;13.2;86.9
67345;BME280;54230;52.402;6.276;2023-04-01T06:05:09;99320.0;;;13.3;87.7
67345;BME280;54230;52.402;6.276;2023-04-01T06:10:00;99330.0;;;13.3;87.4
67345;BME280;54230;52.402;6.276;2023-04-01T06:15:09;99340.0;;;13.4;87.3
67345;BME280;54230;52.402;6.276;2023-04-01T06:20:04;99330.0;;;13.5;86.5
67345;BME280;54230;52.402;6.276;2023-04-01T06:25:14;99340.0;;;13.6;86.5
67345;BME280;54230;52.402;6.276;2023-04-01T06:30:04;99350.0;;;13.6;86.0
67345;BME280;54230;52.402;6.276;2023-04-01T06:35:17;99360.0;;;13.6;85.8
67345;BME280;54230;52.402;6.276;2023-04-01T06:40:19;99360.0;;;13.5;85.6
67345;BME280;54230;52.402;6.276;2023-04-01T06:45:06;99370.0;;;13.6;86.9
67345;BME280;54230;52.402;6.276;2023-04-01T06:50:05;99370.0;;;13.8;89.2
67345;BME280;54230;52.402;6.276;2023-04-01T06:55:09;99380.0;;;13.9;89.3
67345;BME280;54230;52.402;6.276;2023-04-01T07:00:03;99380.0;;;13.9;87.2
67345;BME280;54230;52.402;6.276;2023-04-01T07:05:01;99390.0;;;14.0;86.4
67345;BME280;54230;52.402;6.276;2023-04-01T07:10:04;99390.0;;;14.0;86.7
67345;BME280;54230;52.402;6.276;2023-04-01T07:15:04;99400.0;;;14.1;87.3
67345;BME280;54230;52.402;6.276;2023-04-01T07:20:03;99410.0;;;14.1;86.7
67345;BME280;54230;52.402;6.276;2023-04-01T07:25:03;99420.0;;;13.9;85.7
67345;BME280;54230;52.402;6.276;2023-04-01T07:30:00;99430.0;;;14.0;86.1
67345;BME280;54230;52.402;6.276;2023-04-01T07:35:09;99440.0;;;14.0;87.1
67345;BME280;54230;52.402;6.276;2023-04-01T07:40:12;99440.0;;;14.1;86.3
67345;BME280;54230;52.402;6.276;2023-04-01T07:45:05;99450.0;;;14.1;86.5
67345;BME280;54230;52.402;6.276;2023-04-01T07:50:05;99460.0;;;14.1;86.0
67345;BME280;54230;52.402;6.276;2023-04-01T07:55:04;99460.0;;;14.1;86.1
67345;BME280;54230;52.402;6.276;2023-04-01T08:00:05;99470.0;;;14.1;85.6
67345;BME280;54230;52.402;6.276;2023-04-01T08:05:06;99480.0;;;14.1;85.1
67345;BME280;54230;52.402;6.276;2023-04-01T08:10:05;99490.0;;;14.1;85.2
67345;BME280;54230;52.402;6.276;2023-04-01T08:15:11;99490.0;;;14.2;84.1
67345;BME280;54230;52.402;6.276;2023-04-01T08:20:10;99500.0;;;14.4;84.0
67345;BME280;54230;52.402;6.276;2023-04-01T08:25:02;99500.0;;;14.3;84.0
67345;BME280;54230;52.402;6.276;2023-04-01T08:30:04;99510.0;;;14.4;84.3
67345;BME280;54230;52.402;6.276;2023-04-01T08:35:08;99520.0;;;14.4;83.3
67345;BME280;54230;52.402;6.276;2023-04-01T08:40:16;99530.0;;;14.4;83.4
67345;BME280;54230;52.402;6.276;2023-04-01T08:45:14;99530.0;;;14.5;83.1
67345;BME280;54230;52.402;6.276;2023-04-01T08:50:12;99540.0;;;14.5;83.0
67345;BME280;54230;52.402;6.276;2023-04-01T08:55:13;99550.0;;;14.6;82.9
67345;BME280;54230;52.402;6.276;2023-04-01T09:00:05;99550.0;;;14.8;83.2
67345;BME280;54230;52.402;6.276;2023-04-01T09:10:17;99560.0;;;15.1;81.4
67345;BME280;54230;52.402;6.276;2023-04-01T09:20:06;99570.0;;;15.7;79.9
67345;BME280;54230;52.402;6.276;2023-04-01T09:30:11;99580.0;;;15.9;77.5
67345;BME280;54230;52.402;6.276;2023-04-01T09:35:10;99590.0;;;16.0;76.6
67345;BME280;54230;52.402;6.276;2023-04-01T09:40:09;99590.0;;;16.2;76.1
67345;BME280;54230;52.402;6.276;2023-04-01T09:45:04;99600.0;;;16.2;76.2
67345;BME280;54230;52.402;6.276;2023-04-01T09:50:14;99610.0;;;16.1;76.5
67345;BME280;54230;52.402;6.276;2023-04-01T09:55:17;99620.0;;;16.1;76.7
67345;BME280;54230;52.402;6.276;2023-04-01T10:00:13;99630.0;;;16.0;77.1
67345;BME280;54230;52.402;6.276;2023-04-01T10:05:17;99630.0;;;15.9;77.7
67345;BME280;54230;52.402;6.276;2023-04-01T10:20:08;99650.0;;;16.0;78.5
67345;BME280;54230;52.402;6.276;2023-04-01T10:25:05;99660.0;;;16.4;77.1
67345;BME280;54230;52.402;6.276;2023-04-01T10:50:14;99670.0;;;16.8;73.9
67345;BME280;54230;52.402;6.276;2023-04-01T10:55:15;99670.0;;;16.6;73.8
67345;BME280;54230;52.402;6.276;2023-04-01T11:00:14;99690.0;;;15.6;75.9
67345;BME280;54230;52.402;6.276;2023-04-01T11:05:20;99700.0;;;14.9;77.6
67345;BME280;54230;52.402;6.276;2023-04-01T11:15:15;99700.0;;;14.3;83.5
67345;BME280;54230;52.402;6.276;2023-04-01T11:25:07;99710.0;;;14.3;86.7
67345;BME280;54230;52.402;6.276;2023-04-01T11:30:07;99720.0;;;14.5;86.8
67345;BME280;54230;52.402;6.276;2023-04-01T11:35:20;99730.0;;;14.7;85.9
67345;BME280;54230;52.402;6.276;2023-04-01T11:40:08;99740.0;;;14.7;85.4
67345;BME280;54230;52.402;6.276;2023-04-01T11:45:12;99750.0;;;14.6;84.2
67345;BME280;54230;52.402;6.276;2023-04-01T11:50:15;99760.0;;;14.8;83.8
67345;BME280;54230;52.402;6.276;2023-04-01T11:55:15;99760.0;;;14.9;83.1
67345;BME280;54230;52.402;6.276;2023-04-01T12:00:20;99780.0;;;15.1;82.8
67345;BME280;54230;52.402;6.276;2023-04-01T12:05:15;99790.0;;;15.4;82.1
67345;BME280;54230;52.402;6.276;2023-04-01T12:10:05;99790.0;;;15.2;80.8
67345;BME280;54230;52.402;6.276;2023-04-01T12:15:10;99790.0;;;15.1;80.7
67345;BME280;54230;52.402;6.276;2023-04-01T12:20:20;99810.0;;;15.0;79.7
67345;BME280;54230;52.402;6.276;2023-04-01T12:25:06;99810.0;;;15.1;80.7
67345;BME280;54230;52.402;6.276;2023-04-01T12:30:14;99820.0;;;15.2;80.3
67345;BME280;54230;52.402;6.276;2023-04-01T12:35:15;99830.0;;;15.4;79.7
67345;BME280;54230;52.402;6.276;2023-04-01T12:40:06;99840.0;;;15.2;78.5
67345;BME280;54230;52.402;6.276;2023-04-01T12:45:07;99850.0;;;15.1;78.9
67345;BME280;54230;52.402;6.276;2023-04-01T12:50:16;99860.0;;;14.9;79.0
67345;BME280;54230;52.402;6.276;2023-04-01T13:00:12;99870.0;;;15.0;79.5
67345;BME280;54230;52.402;6.276;2023-04-01T13:05:20;99880.0;;;14.5;80.7
67345;BME280;54230;52.402;6.276;2023-04-01T13:10:06;99890.0;;;14.6;81.6
67345;BME280;54230;52.402;6.276;2023-04-01T13:15:16;99900.0;;;14.8;82.4
67345;BME280;54230;52.402;6.276;2023-04-01T13:20:04;99910.0;;;14.9;81.0
67345;BME280;54230;52.402;6.276;2023-04-01T13:25:04;99910.0;;;15.0;81.0
67345;BME280;54230;52.402;6.276;2023-04-01T13:30:09;99920.0;;;15.1;81.3
67345;BME280;54230;52.402;6.276;2023-04-01T13:35:08;99920.0;;;14.6;81.5
67345;BME280;54230;52.402;6.276;2023-04-01T13:40:17;99930.0;;;14.0;82.9
67345;BME280;54230;52.402;6.276;2023-04-01T13:45:02;99950.0;;;13.5;85.4
67345;BME280;54230;52.402;6.276;2023-04-01T13:55:07;99960.0;;;13.3;86.6
67345;BME280;54230;52.402;6.276;2023-04-01T14:05:09;99980.0;;;13.4;86.3
67345;BME280;54230;52.402;6.276;2023-04-01T14:10:14;99990.0;;;13.2;86.0
67345;BME280;54230;52.402;6.276;2023-04-01T14:20:15;100000.0;;;12.7;88.1
67345;BME280;54230;52.402;6.276;2023-04-01T14:30:12;100030.0;;;12.6;89.5
67345;BME280;54230;52.402;6.276;2023-04-01T14:35:14;100030.0;;;12.6;90.6
67345;BME280;54230;52.402;6.276;2023-04-01T14:40:16;100040.0;;;12.6;90.5
67345;BME280;54230;52.402;6.276;2023-04-01T14:50:07;100060.0;;;12.2;91.5
67345;BME280;54230;52.402;6.276;2023-04-01T14:55:01;100070.0;;;12.0;91.9
67345;BME280;54230;52.402;6.276;2023-04-01T15:00:09;100080.0;;;12.1;92.6
67345;BME280;54230;52.402;6.276;2023-04-01T15:05:06;100090.0;;;12.2;92.5
67345;BME280;54230;52.402;6.276;2023-04-01T15:10:06;100100.0;;;12.3;92.5
67345;BME280;54230;52.402;6.276;2023-04-01T15:15:12;100110.0;;;12.2;92.2
67345;BME280;54230;52.402;6.276;2023-04-01T15:20:13;100120.0;;;11.9;91.8
67345;BME280;54230;52.402;6.276;2023-04-01T15:25:16;100130.0;;;11.9;91.5
67345;BME280;54230;52.402;6.276;2023-04-01T15:30:17;100140.0;;;12.0;90.5
67345;BME280;54230;52.402;6.276;2023-04-01T15:35:09;100150.0;;;12.3;89.2
67345;BME280;54230;52.402;6.276;2023-04-01T15:40:07;100160.0;;;12.4;87.8
67345;BME280;54230;52.402;6.276;2023-04-01T15:45:11;100170.0;;;12.2;86.9
67345;BME280;54230;52.402;6.276;2023-04-01T15:50:21;100190.0;;;12.2;86.9
67345;BME280;54230;52.402;6.276;2023-04-01T15:55:13;100200.0;;;12.4;87.6
67345;BME280;54230;52.402;6.276;2023-04-01T16:00:13;100210.0;;;12.8;85.1
67345;BME280;54230;52.402;6.276;2023-04-01T16:05:05;100220.0;;;13.0;83.5
67345;BME280;54230;52.402;6.276;2023-04-01T16:10:16;100230.0;;;12.8;83.4
67345;BME280;54230;52.402;6.276;2023-04-01T16:15:10;100250.0;;;12.8;83.9
67345;BME280;54230;52.402;6.276;2023-04-01T16:20:03;100250.0;;;12.9;81.7
67345;BME280;54230;52.402;6.276;2023-04-01T16:25:17;100270.0;;;13.1;82.0
67345;BME280;54230;52.402;6.276;2023-04-01T16:30:03;100280.0;;;13.1;81.6
67345;BME280;54230;52.402;6.276;2023-04-01T16:35:10;100280.0;;;13.1;80.9
67345;BME280;54230;52.402;6.276;2023-04-01T16:40:11;100300.0;;;13.0;80.0
67345;BME280;54230;52.402;6.276;2023-04-01T16:45:08;100310.0;;;12.4;81.9
67345;BME280;54230;52.402;6.276;2023-04-01T16:50:07;100320.0;;;12.1;83.9
67345;BME280;54230;52.402;6.276;2023-04-01T16:55:03;100330.0;;;11.9;84.0
67345;BME280;54230;52.402;6.276;2023-04-01T17:00:10;100350.0;;;11.8;84.9
67345;BME280;54230;52.402;6.276;2023-04-01T17:05:03;100360.0;;;11.7;85.2
67345;BME280;54230;52.402;6.276;2023-04-01T17:10:06;100360.0;;;11.8;84.6
67345;BME280;54230;52.402;6.276;2023-04-01T17:15:05;100380.0;;;11.9;83.3
67345;BME280;54230;52.402;6.276;2023-04-01T17:20:11;100390.0;;;12.0;83.1
67345;BME280;54230;52.402;6.276;2023-04-01T17:25:14;100410.0;;;12.2;82.3
67345;BME280;54230;52.402;6.276;2023-04-01T17:30:13;100420.0;;;11.9;81.0
67345;BME280;54230;52.402;6.276;2023-04-01T17:35:05;100430.0;;;11.8;80.8
67345;BME280;54230;52.402;6.276;2023-04-01T17:40:19;100440.0;;;11.8;80.7
67345;BME280;54230;52.402;6.276;2023-04-01T17:45:04;100460.0;;;11.2;80.3
67345;BME280;54230;52.402;6.276;2023-04-01T17:50:09;100460.0;;;11.1;81.6
67345;BME280;54230;52.402;6.276;2023-04-01T17:55:18;100470.0;;;10.9;82.5
67345;BME280;54230;52.402;6.276;2023-04-01T18:00:03;100490.0;;;10.9;82.6
67345;BME280;54230;52.402;6.276;2023-04-01T18:05:15;100500.0;;;10.8;82.7
67345;BME280;54230;52.402;6.276;2023-04-01T18:10:12;100520.0;;;10.4;84.0
67345;BME280;54230;52.402;6.276;2023-04-01T18:15:07;100530.0;;;10.1;86.0
67345;BME280;54230;52.402;6.276;2023-04-01T18:20:06;100550.0;;;10.1;86.3
67345;BME280;54230;52.402;6.276;2023-04-01T18:25:10;100560.0;;;10.1;86.6
67345;BME280;54230;52.402;6.276;2023-04-01T18:30:07;100570.0;;;9.7;88.1
67345;BME280;54230;52.402;6.276;2023-04-01T18:35:12;100580.0;;;9.8;88.1
67345;BME280;54230;52.402;6.276;2023-04-01T18:40:10;100600.0;;;10.1;87.4
67345;BME280;54230;52.402;6.276;2023-04-01T18:45:09;100610.0;;;10.5;87.9
67345;BME280;54230;52.402;6.276;2023-04-01T18:50:11;100630.0;;;10.5;88.9
67345;BME280;54230;52.402;6.276;2023-04-01T18:55:18;100630.0;;;10.3;90.0
67345;BME280;54230;52.402;6.276;2023-04-01T19:00:04;100640.0;;;10.2;89.8
67345;BME280;54230;52.402;6.276;2023-04-01T19:05:04;100660.0;;;10.1;88.7
67345;BME280;54230;52.402;6.276;2023-04-01T19:10:07;100670.0;;;10.3;86.9
67345;BME280;54230;52.402;6.276;2023-04-01T19:15:14;100680.0;;;10.4;85.6
67345;BME280;54230;52.402;6.276;2023-04-01T19:20:08;100690.0;;;10.5;85.2
67345;BME280;54230;52.402;6.276;2023-04-01T19:30:14;100720.0;;;10.2;84.1
67345;BME280;54230;52.402;6.276;2023-04-01T19:35:11;100720.0;;;10.2;83.5
67345;BME280;54230;52.402;6.276;2023-04-01T19:40:08;100740.0;;;10.1;83.1
67345;BME280;54230;52.402;6.276;2023-04-01T19:45:11;100750.0;;;10.0;83.7
67345;BME280;54230;52.402;6.276;2023-04-01T19:50:06;100760.0;;;9.8;84.0
67345;BME280;54230;52.402;6.276;2023-04-01T19:55:04;100770.0;;;9.9;83.2
67345;BME280;54230;52.402;6.276;2023-04-01T20:00:05;100790.0;;;9.9;83.0
67345;BME280;54230;52.402;6.276;2023-04-01T20:05:10;100800.0;;;9.9;83.8
67345;BME280;54230;52.402;6.276;2023-04-01T20:10:07;100810.0;;;9.8;83.4
67345;BME280;54230;52.402;6.276;2023-04-01T20:15:02;100820.0;;;9.7;83.8
67345;BME280;54230;52.402;6.276;2023-04-01T20:20:03;100840.0;;;9.6;83.4
67345;BME280;54230;52.402;6.276;2023-04-01T20:25:08;100850.0;;;9.5;84.6
67345;BME280;54230;52.402;6.276;2023-04-01T20:30:17;100860.0;;;9.4;85.3
67345;BME280;54230;52.402;6.276;2023-04-01T20:35:14;100870.0;;;9.2;85.9
67345;BME280;54230;52.402;6.276;2023-04-01T20:45:14;100880.0;;;9.1;87.3
67345;BME280;54230;52.402;6.276;2023-04-01T20:50:06;100910.0;;;9.0;87.4
67345;BME280;54230;52.402;6.276;2023-04-01T21:00:15;100910.0;;;9.0;87.6
67345;BME280;54230;52.402;6.276;2023-04-01T21:05:20;100930.0;;;8.8;87.1
67345;BME280;54230;52.402;6.276;2023-04-01T21:10:15;100940.0;;;8.7;87.0
67345;BME280;54230;52.402;6.276;2023-04-01T21:15:13;100950.0;;;8.6;87.1
67345;BME280;54230;52.402;6.276;2023-04-01T21:20:16;100970.0;;;8.6;86.3
67345;BME280;54230;52.402;6.276;2023-04-01T21:25:17;100980.0;;;8.6;85.8
67345;BME280;54230;52.402;6.276;2023-04-01T21:30:03;100990.0;;;8.7;85.1
67345;BME280;54230;52.402;6.276;2023-04-01T21:35:05;101000.0;;;8.7;84.6
67345;BME280;54230;52.402;6.276;2023-04-01T21:40:13;101000.0;;;8.7;84.0
67345;BME280;54230;52.402;6.276;2023-04-01T21:45:05;101020.0;;;8.6;83.7
67345;BME280;54230;52.402;6.276;2023-04-01T21:50:12;101030.0;;;8.6;83.4
67345;BME280;54230;52.402;6.276;2023-04-01T21:55:18;101040.0;;;8.6;83.7
67345;BME280;54230;52.402;6.276;2023-04-01T22:00:13;101050.0;;;8.5;83.4
67345;BME280;54230;52.402;6.276;2023-04-01T22:05:05;101060.0;;;8.5;83.1
67345;BME280;54230;52.402;6.276;2023-04-01T22:10:09;101060.0;;;8.5;83.1
67345;BME280;54230;52.402;6.276;2023-04-01T22:15:06;101070.0;;;8.5;82.9
67345;BME280;54230;52.402;6.276;2023-04-01T22:20:11;101080.0;;;8.4;82.5
67345;BME280;54230;52.402;6.276;2023-04-01T22:25:05;101090.0;;;8.4;82.3
67345;BME280;54230;52.402;6.276;2023-04-01T22:30:12;101100.0;;;8.4;82.4
67345;BME280;54230;52.402;6.276;2023-04-01T22:35:06;101110.0;;;8.4;82.4
67345;BME280;54230;52.402;6.276;2023-04-01T22:40:14;101110.0;;;8.4;82.0
67345;BME280;54230;52.402;6.276;2023-04-01T22:45:10;101120.0;;;8.3;81.6
67345;BME280;54230;52.402;6.276;2023-04-01T22:50:03;101130.0;;;8.3;81.3
67345;BME280;54230;52.402;6.276;2023-04-01T22:55:04;101140.0;;;8.2;81.1
67345;BME280;54230;52.402;6.276;2023-04-01T23:00:04;101150.0;;;8.2;80.9
67345;BME280;54230;52.402;6.276;2023-04-01T23:05:02;101150.0;;;8.2;81.2
67345;BME280;54230;52.402;6.276;2023-04-01T23:10:02;101170.0;;;8.2;81.3
67345;BME280;54230;52.402;6.276;2023-04-01T23:15:01;101170.0;;;8.2;80.9
67345;BME280;54230;52.402;6.276;2023-04-01T23:20:06;101180.0;;;8.1;80.1
67345;BME280;54230;52.402;6.276;2023-04-01T23:25:11;101180.0;;;8.1;80.0
67345;BME280;54230;52.402;6.276;2023-04-01T23:30:00;101200.0;;;8.2;79.8
67345;BME280;54230;52.402;6.276;2023-04-01T23:35:00;101210.0;;;8.0;79.7
67345;BME280;54230;52.402;6.276;2023-04-01T23:40:00;101220.0;;;7.9;80.0
67345;BME280;54230;52.402;6.276;2023-04-01T23:45:03;101230.0;;;7.9;80.1
67345;BME280;54230;52.402;6.276;2023-04-01T23:50:03;101220.0;;;7.9;80.0
67345;BME280;54230;52.402;6.276;2023-04-01T23:55:03;101240.0;;;7.9;80.0
